createdAt,value
2022-11-13T00:01:30.918Z,100.00
2022-11-13T00:03:58.539Z,100.00
2022-11-13T00:06:25.027Z,100.00
2022-11-13T00:08:53.930Z,100.00
2022-11-13T00:11:21.024Z,100.00
2022-11-13T00:13:48.020Z,100.00
2022-11-13T00:16:15.305Z,100.00
2022-11-13T00:18:42.722Z,100.00
2022-11-13T00:21:19.703Z,100.00
2022-11-13T00:23:46.262Z,100.00
2022-11-13T00:26:20.042Z,100.00
2022-11-13T00:28:46.507Z,100.00
2022-11-13T00:31:14.768Z,100.00
2022-11-13T00:36:27.995Z,100.00
2022-11-13T00:38:54.976Z,100.00
2022-11-13T00:41:21.715Z,100.00
2022-11-13T00:43:47.987Z,100.00
2022-11-13T00:46:14.282Z,100.00
2022-11-13T00:48:40.597Z,100.00
2022-11-13T00:51:07.138Z,100.00
2022-11-13T00:53:33.411Z,100.00
2022-11-13T00:56:00.465Z,100.00
2022-11-13T00:58:27.713Z,100.00
2022-11-13T01:00:54.343Z,100.00
2022-11-13T01:03:20.595Z,100.00
2022-11-13T01:05:47.288Z,100.00
2022-11-13T01:08:14.583Z,100.00
2022-11-13T01:10:50.402Z,100.00
2022-11-13T01:13:19.995Z,100.00
2022-11-13T01:15:46.443Z,100.00
2022-11-13T01:18:13.086Z,100.00
2022-11-13T01:20:39.568Z,100.00
2022-11-13T01:23:05.892Z,100.00
2022-11-13T01:25:32.420Z,100.00
2022-11-13T01:27:58.761Z,100.00
2022-11-13T01:30:25.328Z,100.00
2022-11-13T01:32:51.624Z,100.00
2022-11-13T01:35:17.995Z,100.00
2022-11-13T01:37:44.445Z,100.00
2022-11-13T01:40:12.346Z,100.00
2022-11-13T01:42:38.763Z,100.00
2022-11-13T01:45:25.068Z,100.00
2022-11-13T01:47:51.435Z,100.00
2022-11-13T01:50:17.864Z,100.00
2022-11-13T01:52:44.132Z,100.00
2022-11-13T01:55:15.932Z,100.00
2022-11-13T01:57:42.410Z,100.00
2022-11-13T02:00:10.010Z,100.00
2022-11-13T02:02:36.618Z,100.00
2022-11-13T02:05:03.366Z,100.00
2022-11-13T02:07:29.884Z,100.00
2022-11-13T02:09:57.817Z,100.00
2022-11-13T02:12:41.373Z,100.00
2022-11-13T02:15:08.174Z,100.00
2022-11-13T02:17:40.647Z,100.00
2022-11-13T02:20:07.437Z,100.00
2022-11-13T02:22:37.134Z,100.00
2022-11-13T02:25:04.024Z,100.00
2022-11-13T02:27:33.919Z,100.00
2022-11-13T02:30:15.912Z,100.00
2022-11-13T02:32:46.959Z,100.00
2022-11-13T02:35:14.919Z,100.00
2022-11-13T02:37:41.528Z,100.00
2022-11-13T02:40:08.273Z,100.00
2022-11-13T02:42:34.559Z,100.00
2022-11-13T02:45:01.236Z,100.00
2022-11-13T02:47:28.190Z,100.00
2022-11-13T02:49:54.464Z,100.00
2022-11-13T02:52:20.860Z,100.00
2022-11-13T02:54:47.223Z,100.00
2022-11-13T02:57:13.508Z,100.00
2022-11-13T02:59:40.099Z,100.00
2022-11-13T03:02:06.602Z,100.00
2022-11-13T03:04:57.140Z,100.00
2022-11-13T03:07:19.383Z,100.00
2022-11-13T03:09:45.863Z,100.00
2022-11-13T03:12:12.132Z,100.00
2022-11-13T03:14:38.422Z,100.00
2022-11-13T03:17:05.482Z,100.00
2022-11-13T03:19:31.778Z,100.00
2022-11-13T03:21:58.106Z,100.00
2022-11-13T03:24:24.435Z,100.00
2022-11-13T03:26:50.724Z,100.00
2022-11-13T03:29:17.028Z,100.00
2022-11-13T03:31:43.327Z,100.00
2022-11-13T03:34:09.679Z,100.00
2022-11-13T03:36:35.973Z,100.00
2022-11-13T03:39:02.375Z,100.00
2022-11-13T03:41:28.634Z,100.00
2022-11-13T03:43:54.913Z,100.00
2022-11-13T03:46:21.250Z,100.00
2022-11-13T03:48:47.815Z,100.00
2022-11-13T03:51:14.233Z,100.00
2022-11-13T03:53:40.603Z,100.00
2022-11-13T03:56:07.025Z,100.00
2022-11-13T03:58:34.107Z,100.00
2022-11-13T04:01:02.681Z,100.00
2022-11-13T04:03:28.944Z,100.00
2022-11-13T04:05:55.250Z,100.00
2022-11-13T04:08:21.524Z,100.00
2022-11-13T04:10:47.842Z,100.00
2022-11-13T04:13:14.141Z,100.00
2022-11-13T04:15:40.419Z,100.00
2022-11-13T04:18:06.700Z,100.00
2022-11-13T04:20:33.014Z,100.00
2022-11-13T04:22:59.764Z,100.00
2022-11-13T04:25:26.351Z,100.00
2022-11-13T04:27:53.256Z,100.00
2022-11-13T04:30:19.718Z,100.00
2022-11-13T04:32:45.980Z,100.00
2022-11-13T04:35:12.339Z,100.00
2022-11-13T04:37:38.631Z,100.00
2022-11-13T04:40:05.375Z,100.00
2022-11-13T04:42:50.045Z,100.00
2022-11-13T04:45:18.003Z,100.00
2022-11-13T04:47:44.721Z,100.00
2022-11-13T04:50:11.459Z,100.00
2022-11-13T04:52:37.778Z,100.00
2022-11-13T04:55:04.423Z,100.00
2022-11-13T04:57:30.755Z,100.00
2022-11-13T04:59:57.100Z,100.00
2022-11-13T05:02:24.002Z,100.00
2022-11-13T05:04:50.375Z,100.00
2022-11-13T05:07:16.719Z,100.00
2022-11-13T05:09:43.112Z,100.00
2022-11-13T05:12:09.700Z,100.00
2022-11-13T05:14:36.476Z,100.00
2022-11-13T05:17:03.225Z,100.00
2022-11-13T05:19:29.528Z,100.00
2022-11-13T05:21:55.860Z,100.00
2022-11-13T05:24:22.126Z,100.00
2022-11-13T05:26:48.472Z,100.00
2022-11-13T05:29:14.769Z,100.00
2022-11-13T05:31:41.172Z,100.00
2022-11-13T05:34:07.522Z,100.00
2022-11-13T05:36:33.960Z,100.00
2022-11-13T05:39:00.396Z,100.00
2022-11-13T05:41:26.681Z,100.00
2022-11-13T05:43:59.013Z,100.00
2022-11-13T05:46:27.392Z,100.00
2022-11-13T05:49:00.835Z,100.00
2022-11-13T05:51:28.476Z,100.00
2022-11-13T05:53:55.063Z,100.00
2022-11-13T05:56:22.975Z,100.00
2022-11-13T05:58:49.969Z,100.00
2022-11-13T06:01:16.240Z,100.00
2022-11-13T06:03:43.064Z,100.00
2022-11-13T06:06:10.860Z,100.00
2022-11-13T06:08:37.823Z,100.00
2022-11-13T06:11:05.522Z,100.00
2022-11-13T06:13:32.051Z,100.00
2022-11-13T06:16:05.825Z,100.00
2022-11-13T06:18:32.803Z,100.00
2022-11-13T06:21:03.476Z,100.00
2022-11-13T06:23:31.520Z,100.00
2022-11-13T06:26:01.922Z,100.00
2022-11-13T06:28:28.437Z,100.00
2022-11-13T06:30:54.991Z,100.00
2022-11-13T06:33:21.282Z,100.00
2022-11-13T06:35:47.535Z,100.00
2022-11-13T06:38:13.780Z,100.00
2022-11-13T06:40:40.266Z,100.00
2022-11-13T06:43:06.593Z,100.00
2022-11-13T06:45:32.944Z,100.00
2022-11-13T06:47:59.282Z,100.00
2022-11-13T06:50:25.533Z,100.00
2022-11-13T06:52:52.043Z,100.00
2022-11-13T06:55:18.834Z,100.00
2022-11-13T06:57:45.105Z,100.00
2022-11-13T07:00:11.695Z,100.00
2022-11-13T07:02:37.949Z,100.00
2022-11-13T07:05:04.300Z,100.00
2022-11-13T07:07:30.611Z,100.00
2022-11-13T07:09:56.899Z,100.00
2022-11-13T07:12:23.224Z,100.00
2022-11-13T07:14:49.474Z,100.00
2022-11-13T07:17:16.198Z,100.00
2022-11-13T07:19:42.480Z,100.00
2022-11-13T07:22:08.715Z,100.00
2022-11-13T07:24:34.949Z,100.00
2022-11-13T07:27:01.205Z,100.00
2022-11-13T07:29:27.607Z,100.00
2022-11-13T07:31:54.308Z,100.00
2022-11-13T07:34:20.567Z,100.00
2022-11-13T07:36:46.799Z,100.00
2022-11-13T07:39:13.058Z,100.00
2022-11-13T07:41:42.281Z,100.00
2022-11-13T07:44:09.591Z,100.00
2022-11-13T07:46:36.398Z,100.00
2022-11-13T07:49:02.688Z,100.00
2022-11-13T07:51:29.108Z,100.00
2022-11-13T07:53:55.479Z,100.00
2022-11-13T07:56:23.347Z,100.00
2022-11-13T07:58:49.726Z,100.00
2022-11-13T08:01:16.915Z,100.00
2022-11-13T08:03:43.347Z,100.00
2022-11-13T08:06:10.422Z,100.00
2022-11-13T08:08:36.704Z,100.00
2022-11-13T08:11:03.927Z,100.00
2022-11-13T08:13:30.305Z,100.00
2022-11-13T08:15:58.745Z,100.00
2022-11-13T08:19:03.823Z,100.00
2022-11-13T08:21:30.260Z,100.00
2022-11-13T08:23:56.630Z,100.00
2022-11-13T08:26:23.225Z,99.71
2022-11-13T08:28:49.523Z,99.43
2022-11-13T08:31:16.611Z,98.99
2022-11-13T08:33:43.410Z,98.47
2022-11-13T08:36:10.794Z,97.18
2022-11-13T08:38:37.175Z,98.25
2022-11-13T08:41:08.920Z,98.07
2022-11-13T08:43:36.080Z,97.33
2022-11-13T08:46:04.311Z,96.48
2022-11-13T08:48:31.083Z,96.46
2022-11-13T08:50:57.890Z,96.59
2022-11-13T08:53:24.471Z,95.93
2022-11-13T08:55:50.799Z,95.15
2022-11-13T08:58:17.468Z,95.43
2022-11-13T09:00:43.769Z,94.95
2022-11-13T09:03:11.347Z,94.28
2022-11-13T09:05:37.669Z,94.22
2022-11-13T09:08:04.447Z,93.52
2022-11-13T09:10:30.722Z,93.77
2022-11-13T09:12:58.067Z,93.89
2022-11-13T09:15:24.816Z,94.25
2022-11-13T09:17:51.194Z,93.95
2022-11-13T09:20:22.433Z,94.20
2022-11-13T09:22:49.365Z,92.83
2022-11-13T09:25:15.691Z,92.38
2022-11-13T09:27:41.982Z,91.33
2022-11-13T09:30:09.256Z,91.76
2022-11-13T09:32:35.574Z,90.68
2022-11-13T09:35:02.097Z,91.11
2022-11-13T09:37:28.396Z,90.32
2022-11-13T09:39:54.688Z,90.21
2022-11-13T09:42:24.566Z,89.85
2022-11-13T09:45:12.259Z,90.11
2022-11-13T09:47:43.837Z,89.22
2022-11-13T09:50:10.478Z,89.45
2022-11-13T09:52:37.928Z,88.23
2022-11-13T09:55:04.406Z,87.38
2022-11-13T09:58:09.318Z,87.12
2022-11-13T10:00:36.230Z,86.85
2022-11-13T10:03:39.465Z,86.83
2022-11-13T10:06:46.985Z,85.45
2022-11-13T10:09:23.888Z,86.16
2022-11-13T10:11:55.485Z,85.80
2022-11-13T10:14:25.282Z,85.91
2022-11-13T10:16:57.147Z,85.79
2022-11-13T10:19:23.416Z,86.45
2022-11-13T10:22:26.489Z,85.81
2022-11-13T10:24:52.570Z,85.15
2022-11-13T10:27:18.855Z,83.34
2022-11-13T10:29:48.997Z,80.78
2022-11-13T10:32:20.671Z,81.48
2022-11-13T10:34:54.343Z,81.35
2022-11-13T10:37:49.875Z,81.70
2022-11-13T10:40:29.619Z,83.74
2022-11-13T10:43:04.789Z,83.24
2022-11-13T10:45:31.119Z,82.26
2022-11-13T10:48:04.261Z,81.62
2022-11-13T10:50:31.563Z,82.38
2022-11-13T10:52:57.864Z,81.49
2022-11-13T10:55:36.536Z,82.10
2022-11-13T10:58:04.813Z,83.53
2022-11-13T11:00:38.675Z,81.74
2022-11-13T11:03:08.185Z,81.84
2022-11-13T11:05:34.551Z,82.18
2022-11-13T11:08:00.933Z,80.13
2022-11-13T11:10:57.026Z,80.12
2022-11-13T11:13:24.038Z,80.58
2022-11-13T11:15:53.937Z,80.13
2022-11-13T11:18:30.618Z,80.68
2022-11-13T11:20:58.267Z,79.00
2022-11-13T11:23:31.084Z,78.82
2022-11-13T11:25:59.571Z,78.29
2022-11-13T11:28:31.692Z,77.54
2022-11-13T11:31:04.461Z,78.89
2022-11-13T11:33:48.667Z,77.94
2022-11-13T11:36:17.988Z,78.46
2022-11-13T11:38:51.910Z,78.84
2022-11-13T11:41:20.111Z,77.88
2022-11-13T11:43:49.562Z,76.82
2022-11-13T11:46:19.664Z,77.22
2022-11-13T11:48:45.942Z,78.23
2022-11-13T11:51:15.954Z,77.02
2022-11-13T11:53:53.569Z,77.68
2022-11-13T11:56:33.593Z,76.94
2022-11-13T11:59:18.688Z,77.36
2022-11-13T12:01:47.947Z,76.87
2022-11-13T12:04:34.864Z,77.26
2022-11-13T12:07:19.647Z,77.04
2022-11-13T12:09:57.117Z,75.49
2022-11-13T12:12:42.288Z,74.44
2022-11-13T12:15:26.300Z,74.37
2022-11-13T12:17:52.610Z,74.48
2022-11-13T12:20:28.792Z,75.65
2022-11-13T12:23:10.800Z,75.53
2022-11-13T12:25:39.476Z,75.42
2022-11-13T12:28:27.331Z,75.02
2022-11-13T12:30:56.855Z,75.81
2022-11-13T12:33:34.193Z,75.64
2022-11-13T12:36:01.189Z,77.25
2022-11-13T12:38:32.835Z,76.41
2022-11-13T12:40:59.086Z,75.76
2022-11-13T12:43:37.683Z,75.16
2022-11-13T12:46:08.277Z,74.66
2022-11-13T12:48:35.822Z,74.35
2022-11-13T12:51:07.723Z,76.15
2022-11-13T12:53:44.893Z,75.03
2022-11-13T12:56:15.739Z,75.47
2022-11-13T12:59:15.407Z,76.62
2022-11-13T13:01:43.350Z,77.20
2022-11-13T13:04:18.932Z,76.66
2022-11-13T13:06:45.277Z,76.50
2022-11-13T13:09:21.543Z,77.07
2022-11-13T13:12:07.329Z,77.46
2022-11-13T13:14:39.852Z,78.22
2022-11-13T13:17:16.831Z,79.30
2022-11-13T13:19:43.235Z,78.95
2022-11-13T13:22:24.400Z,80.78
2022-11-13T13:24:58.576Z,78.65
2022-11-13T13:27:25.963Z,77.21
2022-11-13T13:29:52.268Z,76.64
2022-11-13T13:32:23.197Z,75.63
2022-11-13T13:35:06.918Z,76.31
2022-11-13T13:37:53.443Z,77.74
2022-11-13T13:40:28.944Z,77.72
2022-11-13T13:43:04.334Z,74.72
2022-11-13T13:45:47.388Z,74.00
2022-11-13T13:48:16.062Z,74.55
2022-11-13T13:50:45.650Z,75.09
2022-11-13T13:53:13.320Z,75.26
2022-11-13T13:55:44.943Z,74.25
2022-11-13T13:58:14.332Z,74.80
2022-11-13T14:00:59.041Z,75.57
2022-11-13T14:03:29.076Z,75.96
2022-11-13T14:06:00.926Z,77.08
2022-11-13T14:08:29.836Z,77.86
2022-11-13T14:10:56.332Z,78.82
2022-11-13T14:13:26.605Z,79.41
2022-11-13T14:16:02.985Z,79.25
2022-11-13T14:18:30.003Z,80.20
2022-11-13T14:20:58.679Z,78.85
2022-11-13T14:23:34.868Z,78.35
2022-11-13T14:26:01.774Z,78.68
2022-11-13T14:28:29.973Z,79.33
2022-11-13T14:31:07.137Z,79.56
2022-11-13T14:33:41.635Z,79.73
2022-11-13T14:36:08.340Z,79.60
2022-11-13T14:38:35.886Z,77.87
2022-11-13T14:41:03.506Z,78.57
2022-11-13T14:43:31.258Z,79.59
2022-11-13T14:46:02.745Z,79.99
2022-11-13T14:48:33.418Z,80.68
2022-11-13T14:50:59.771Z,81.54
2022-11-13T14:53:28.073Z,81.80
2022-11-13T14:55:56.010Z,82.66
2022-11-13T14:58:36.324Z,82.83
2022-11-13T15:01:35.266Z,83.66
2022-11-13T15:04:01.667Z,84.10
2022-11-13T15:06:34.603Z,84.67
2022-11-13T15:09:01.149Z,84.09
2022-11-13T15:11:27.501Z,83.96
2022-11-13T15:13:53.957Z,84.71
2022-11-13T15:16:23.031Z,85.40
2022-11-13T15:18:54.143Z,85.79
2022-11-13T15:21:20.499Z,86.30
2022-11-13T15:23:46.858Z,87.26
2022-11-13T15:26:13.543Z,87.53
2022-11-13T15:28:39.873Z,87.91
2022-11-13T15:31:14.904Z,88.34
2022-11-13T15:33:41.218Z,88.96
2022-11-13T15:36:08.828Z,93.38
2022-11-13T15:38:35.203Z,91.82
2022-11-13T15:41:01.516Z,91.18
2022-11-13T15:43:28.038Z,91.37
2022-11-13T15:45:54.511Z,92.57
2022-11-13T15:48:20.852Z,91.91
2022-11-13T15:50:47.165Z,90.78
2022-11-13T15:53:13.489Z,89.95
2022-11-13T15:55:40.740Z,90.22
2022-11-13T15:58:13.759Z,90.02
2022-11-13T16:00:42.726Z,90.55
2022-11-13T16:03:11.978Z,91.59
2022-11-13T16:05:38.409Z,91.90
2022-11-13T16:08:11.826Z,92.07
2022-11-13T16:10:38.131Z,91.85
2022-11-13T16:13:04.564Z,92.01
2022-11-13T16:15:30.908Z,92.25
2022-11-13T16:17:57.828Z,92.47
2022-11-13T16:20:28.840Z,92.77
2022-11-13T16:22:56.189Z,91.86
2022-11-13T16:25:22.618Z,91.77
2022-11-13T16:27:48.939Z,92.60
2022-11-13T16:30:23.320Z,92.68
2022-11-13T16:32:49.700Z,92.88
2022-11-13T16:35:17.103Z,92.81
2022-11-13T16:37:43.449Z,93.19
2022-11-13T16:40:15.312Z,93.48
2022-11-13T16:42:41.584Z,93.71
2022-11-13T16:45:08.008Z,93.70
2022-11-13T16:47:34.402Z,93.52
2022-11-13T16:50:00.919Z,94.06
2022-11-13T16:52:27.217Z,94.04
2022-11-13T16:54:53.552Z,95.29
2022-11-13T16:57:19.939Z,94.56
2022-11-13T16:59:46.228Z,94.91
2022-11-13T17:02:13.864Z,95.16
2022-11-13T17:04:40.448Z,96.08
2022-11-13T17:07:06.861Z,96.71
2022-11-13T17:09:33.191Z,97.86
2022-11-13T17:11:59.489Z,97.15
2022-11-13T17:14:25.898Z,95.96
2022-11-13T17:16:52.234Z,96.90
2022-11-13T17:19:18.560Z,99.15
2022-11-13T17:21:44.848Z,99.48
2022-11-13T17:24:11.116Z,100.00
2022-11-13T17:26:37.465Z,100.00
2022-11-13T17:29:05.627Z,98.32
2022-11-13T17:31:32.112Z,99.84
2022-11-13T17:33:58.451Z,100.00
2022-11-13T17:36:24.901Z,100.00
2022-11-13T17:38:51.228Z,100.00
2022-11-13T17:41:17.714Z,100.00
2022-11-13T17:43:44.282Z,100.00
2022-11-13T17:46:14.712Z,100.00
2022-11-13T17:48:41.464Z,100.00
2022-11-13T17:51:09.903Z,100.00
2022-11-13T17:53:36.240Z,100.00
2022-11-13T17:56:03.671Z,100.00
2022-11-13T17:58:30.068Z,100.00
2022-11-13T18:01:04.104Z,100.00
2022-11-13T18:03:31.286Z,100.00
2022-11-13T18:05:57.806Z,100.00
2022-11-13T18:08:24.124Z,100.00
2022-11-13T18:10:50.410Z,100.00
2022-11-13T18:13:16.703Z,100.00
2022-11-13T18:15:44.096Z,100.00
2022-11-13T18:18:10.392Z,100.00
2022-11-13T18:20:39.156Z,100.00
2022-11-13T18:23:05.578Z,100.00
2022-11-13T18:25:38.329Z,100.00
2022-11-13T18:28:05.863Z,100.00
2022-11-13T18:30:32.250Z,100.00
2022-11-13T18:32:58.546Z,100.00
2022-11-13T18:35:24.829Z,100.00
2022-11-13T18:37:52.191Z,100.00
2022-11-13T18:40:18.690Z,100.00
2022-11-13T18:42:44.997Z,100.00
2022-11-13T18:45:11.767Z,100.00
2022-11-13T18:47:38.077Z,100.00
2022-11-13T18:50:04.686Z,100.00
2022-11-13T18:52:32.572Z,100.00
2022-11-13T18:54:58.848Z,100.00
2022-11-13T18:57:25.340Z,100.00
2022-11-13T18:59:51.660Z,100.00
2022-11-13T19:02:18.076Z,100.00
2022-11-13T19:04:44.631Z,100.00
2022-11-13T19:07:12.135Z,100.00
2022-11-13T19:09:44.694Z,100.00
2022-11-13T19:12:10.978Z,100.00
2022-11-13T19:14:37.257Z,100.00
2022-11-13T19:17:03.643Z,100.00
2022-11-13T19:19:29.930Z,100.00
2022-11-13T19:21:56.201Z,100.00
2022-11-13T19:24:22.526Z,100.00
2022-11-13T19:26:48.874Z,100.00
2022-11-13T19:29:15.194Z,100.00
2022-11-13T19:31:41.605Z,100.00
2022-11-13T19:34:08.180Z,100.00
2022-11-13T19:36:35.299Z,100.00
2022-11-13T19:39:01.726Z,100.00
2022-11-13T19:41:28.684Z,100.00
2022-11-13T19:43:56.862Z,100.00
2022-11-13T19:46:23.206Z,100.00
2022-11-13T19:48:50.126Z,100.00
2022-11-13T19:51:20.968Z,100.00
2022-11-13T19:53:47.579Z,100.00
2022-11-13T19:56:14.699Z,100.00
2022-11-13T19:58:43.956Z,100.00
2022-11-13T20:01:18.849Z,100.00
2022-11-13T20:03:45.442Z,100.00
2022-11-13T20:06:13.254Z,100.00
2022-11-13T20:08:39.932Z,100.00
2022-11-13T20:11:07.783Z,100.00
2022-11-13T20:13:36.483Z,100.00
2022-11-13T20:16:03.524Z,100.00
2022-11-13T20:18:30.167Z,100.00
2022-11-13T20:20:56.796Z,100.00
2022-11-13T20:23:23.890Z,100.00
2022-11-13T20:25:53.890Z,100.00
2022-11-13T20:28:20.654Z,100.00
2022-11-13T20:30:47.198Z,100.00
2022-11-13T20:33:15.311Z,100.00
2022-11-13T20:35:52.700Z,100.00
2022-11-13T20:38:18.994Z,100.00
2022-11-13T20:40:45.332Z,100.00
2022-11-13T20:43:11.615Z,100.00
2022-11-13T20:45:37.902Z,100.00
2022-11-13T20:48:04.696Z,100.00
2022-11-13T20:50:31.077Z,100.00
2022-11-13T20:52:57.407Z,100.00
2022-11-13T20:55:23.725Z,100.00
2022-11-13T20:57:50.284Z,100.00
2022-11-13T21:00:16.890Z,100.00
2022-11-13T21:02:43.191Z,100.00
2022-11-13T21:05:09.581Z,100.00
2022-11-13T21:07:36.014Z,100.00
2022-11-13T21:10:02.518Z,100.00
2022-11-13T21:12:30.610Z,100.00
2022-11-13T21:14:57.055Z,100.00
2022-11-13T21:17:23.582Z,100.00
2022-11-13T21:19:53.691Z,100.00
2022-11-13T21:22:22.711Z,100.00
2022-11-13T21:24:48.998Z,100.00
2022-11-13T21:27:15.295Z,100.00
2022-11-13T21:29:41.742Z,100.00
2022-11-13T21:32:08.104Z,100.00
2022-11-13T21:34:34.393Z,100.00
2022-11-13T21:37:00.689Z,100.00
2022-11-13T21:39:27.001Z,100.00
2022-11-13T21:41:54.033Z,100.00
2022-11-13T21:44:20.542Z,100.00
2022-11-13T21:46:46.957Z,100.00
2022-11-13T21:49:13.630Z,100.00
2022-11-13T21:51:41.177Z,100.00
2022-11-13T21:54:08.480Z,100.00
2022-11-13T21:56:36.253Z,100.00
2022-11-13T21:59:04.238Z,100.00
2022-11-13T22:01:36.624Z,100.00
2022-11-13T22:04:04.562Z,100.00
2022-11-13T22:06:31.535Z,100.00
2022-11-13T22:09:01.681Z,100.00
2022-11-13T22:11:29.159Z,100.00
2022-11-13T22:13:56.058Z,100.00
2022-11-13T22:16:22.746Z,100.00
2022-11-13T22:18:51.944Z,100.00
2022-11-13T22:21:18.220Z,100.00
2022-11-13T22:23:44.517Z,100.00
2022-11-13T22:26:12.582Z,100.00
2022-11-13T22:28:39.982Z,100.00
2022-11-13T22:31:06.921Z,100.00
2022-11-13T22:33:34.211Z,100.00
2022-11-13T22:36:04.664Z,100.00
2022-11-13T22:38:31.235Z,100.00
2022-11-13T22:41:01.800Z,100.00
2022-11-13T22:43:31.209Z,100.00
2022-11-13T22:46:00.928Z,100.00
2022-11-13T22:48:27.459Z,100.00
2022-11-13T22:50:53.945Z,100.00
2022-11-13T22:53:20.254Z,100.00
2022-11-13T22:55:46.558Z,100.00
2022-11-13T22:58:12.847Z,100.00
2022-11-13T23:00:39.132Z,100.00
2022-11-13T23:03:05.658Z,100.00
2022-11-13T23:05:34.278Z,100.00
2022-11-13T23:08:00.623Z,100.00
2022-11-13T23:10:26.939Z,100.00
2022-11-13T23:12:53.237Z,100.00
2022-11-13T23:15:19.512Z,100.00
2022-11-13T23:17:46.400Z,98.32
2022-11-13T23:20:12.895Z,100.00
2022-11-13T23:22:39.160Z,100.00
2022-11-13T23:25:05.588Z,100.00
2022-11-13T23:27:33.278Z,100.00
2022-11-13T23:29:59.556Z,100.00
2022-11-13T23:32:25.858Z,100.00
2022-11-13T23:34:58.991Z,100.00
2022-11-13T23:37:26.076Z,100.00
2022-11-13T23:39:52.388Z,100.00
2022-11-13T23:42:39.228Z,100.00
2022-11-13T23:45:05.296Z,100.00
2022-11-13T23:47:31.642Z,100.00
2022-11-13T23:49:58.023Z,100.00
2022-11-13T23:52:24.343Z,100.00
2022-11-13T23:54:50.689Z,100.00
2022-11-13T23:57:17.265Z,100.00
2022-11-13T23:59:43.544Z,100.00
